sensor_id;sensor_type;location;lat;lon;timestamp;temperature;humidity
30206;DHT22;17010;51.306;3.150;2022-10-31T00:09:09;12.30;99.90
30206;DHT22;17010;51.306;3.150;2022-10-31T00:16:47;12.30;99.90
30206;DHT22;17010;51.306;3.150;2022-10-31T00:19:13;12.30;99.90
30206;DHT22;17010;51.306;3.150;2022-10-31T00:26:52;12.20;99.90
30206;DHT22;17010;51.306;3.150;2022-10-31T00:29:18;12.10;99.90
30206;DHT22;17010;51.306;3.150;2022-10-31T00:44:43;12.10;99.90
30206;DHT22;17010;51.306;3.150;2022-10-31T00:49:45;12.00;99.90
30206;DHT22;17010;51.306;3.150;2022-10-31T00:52:11;12.00;99.90
30206;DHT22;17010;51.306;3.150;2022-10-31T00:59:49;12.00;99.90
30206;DHT22;17010;51.306;3.150;2022-10-31T01:15:16;11.90;99.90
30206;DHT22;17010;51.306;3.150;2022-10-31T01:17:43;11.90;99.90
30206;DHT22;17010;51.306;3.150;2022-10-31T01:20:09;11.90;99.90
30206;DHT22;17010;51.306;3.150;2022-10-31T01:51:10;11.80;99.90
30206;DHT22;17010;51.306;3.150;2022-10-31T01:56:13;11.70;99.90
30206;DHT22;17010;51.306;3.150;2022-10-31T01:58:41;11.70;99.90
30206;DHT22;17010;51.306;3.150;2022-10-31T02:01:07;11.70;99.90
30206;DHT22;17010;51.306;3.150;2022-10-31T02:03:33;11.70;99.90
30206;DHT22;17010;51.306;3.150;2022-10-31T02:05:59;11.70;99.90
30206;DHT22;17010;51.306;3.150;2022-10-31T02:08:29;11.70;99.90
30206;DHT22;17010;51.306;3.150;2022-10-31T02:10:56;11.70;99.90
30206;DHT22;17010;51.306;3.150;2022-10-31T02:13:22;11.70;99.90
30206;DHT22;17010;51.306;3.150;2022-10-31T02:15:51;11.70;99.90
30206;DHT22;17010;51.306;3.150;2022-10-31T02:18:17;11.70;99.90
30206;DHT22;17010;51.306;3.150;2022-10-31T02:33:40;11.70;99.90
30206;DHT22;17010;51.306;3.150;2022-10-31T02:36:27;11.70;99.90
30206;DHT22;17010;51.306;3.150;2022-10-31T02:39:02;11.60;99.90
30206;DHT22;17010;51.306;3.150;2022-10-31T02:41:34;11.60;99.90
30206;DHT22;17010;51.306;3.150;2022-10-31T03:57:24;11.30;99.90
30206;DHT22;17010;51.306;3.150;2022-10-31T05:09:26;11.20;99.90
30206;DHT22;17010;51.306;3.150;2022-10-31T05:30:02;11.10;99.90
30206;DHT22;17010;51.306;3.150;2022-10-31T05:32:28;11.10;99.90
30206;DHT22;17010;51.306;3.150;2022-10-31T05:40:07;11.00;99.90
30206;DHT22;17010;51.306;3.150;2022-10-31T06:18:42;10.80;99.90
30206;DHT22;17010;51.306;3.150;2022-10-31T06:26:09;10.80;99.90
30206;DHT22;17010;51.306;3.150;2022-10-31T06:28:36;10.90;99.90
30206;DHT22;17010;51.306;3.150;2022-10-31T06:31:02;10.80;99.90
30206;DHT22;17010;51.306;3.150;2022-10-31T06:38:27;10.80;99.90
30206;DHT22;17010;51.306;3.150;2022-10-31T06:43:23;10.80;99.90
30206;DHT22;17010;51.306;3.150;2022-10-31T06:45:50;10.70;99.90
30206;DHT22;17010;51.306;3.150;2022-10-31T07:16:49;11.20;99.90
30206;DHT22;17010;51.306;3.150;2022-10-31T07:58:40;11.50;99.90
30206;DHT22;17010;51.306;3.150;2022-10-31T08:11:29;11.80;99.90
30206;DHT22;17010;51.306;3.150;2022-10-31T08:13:55;11.80;99.90
30206;DHT22;17010;51.306;3.150;2022-10-31T08:37:08;12.70;99.90
30206;DHT22;17010;51.306;3.150;2022-10-31T08:42:10;13.10;99.90
30206;DHT22;17010;51.306;3.150;2022-10-31T09:05:22;15.10;99.90
30206;DHT22;17010;51.306;3.150;2022-10-31T09:13:01;15.10;99.90
30206;DHT22;17010;51.306;3.150;2022-10-31T09:36:24;15.40;99.90
30206;DHT22;17010;51.306;3.150;2022-10-31T09:44:07;15.90;99.90
30206;DHT22;17010;51.306;3.150;2022-10-31T09:51:33;16.20;99.90
30206;DHT22;17010;51.306;3.150;2022-10-31T09:56:36;16.50;99.90
30206;DHT22;17010;51.306;3.150;2022-10-31T09:59:03;16.50;99.90
30206;DHT22;17010;51.306;3.150;2022-10-31T10:01:42;16.50;99.90
30206;DHT22;17010;51.306;3.150;2022-10-31T10:04:25;16.40;99.90
30206;DHT22;17010;51.306;3.150;2022-10-31T10:06:52;16.20;99.90
30206;DHT22;17010;51.306;3.150;2022-10-31T10:09:24;16.10;99.90
30206;DHT22;17010;51.306;3.150;2022-10-31T10:11:54;16.10;99.90
30206;DHT22;17010;51.306;3.150;2022-10-31T10:17:08;16.00;99.90
30206;DHT22;17010;51.306;3.150;2022-10-31T10:30:04;16.00;99.90
30206;DHT22;17010;51.306;3.150;2022-10-31T10:32:36;16.10;99.90
30206;DHT22;17010;51.306;3.150;2022-10-31T10:35:24;16.20;99.90
30206;DHT22;17010;51.306;3.150;2022-10-31T10:37:52;16.50;99.90
30206;DHT22;17010;51.306;3.150;2022-10-31T10:40:23;16.60;99.90
30206;DHT22;17010;51.306;3.150;2022-10-31T10:43:52;16.80;99.90
30206;DHT22;17010;51.306;3.150;2022-10-31T10:46:34;16.90;99.90
30206;DHT22;17010;51.306;3.150;2022-10-31T10:49:05;17.00;99.90
30206;DHT22;17010;51.306;3.150;2022-10-31T10:59:37;16.50;99.90
30206;DHT22;17010;51.306;3.150;2022-10-31T11:02:08;16.40;99.90
30206;DHT22;17010;51.306;3.150;2022-10-31T11:04:41;16.40;99.90
30206;DHT22;17010;51.306;3.150;2022-10-31T11:07:09;16.40;99.90
30206;DHT22;17010;51.306;3.150;2022-10-31T11:09:35;16.50;99.90
30206;DHT22;17010;51.306;3.150;2022-10-31T11:12:09;16.50;99.90
30206;DHT22;17010;51.306;3.150;2022-10-31T11:14:46;16.50;99.90
30206;DHT22;17010;51.306;3.150;2022-10-31T11:17:30;16.60;99.90
30206;DHT22;17010;51.306;3.150;2022-10-31T11:20:00;16.80;99.90
30206;DHT22;17010;51.306;3.150;2022-10-31T11:22:26;16.80;99.90
30206;DHT22;17010;51.306;3.150;2022-10-31T11:24:52;16.90;99.90
30206;DHT22;17010;51.306;3.150;2022-10-31T11:27:23;16.90;99.90
30206;DHT22;17010;51.306;3.150;2022-10-31T11:29:49;17.00;99.90
30206;DHT22;17010;51.306;3.150;2022-10-31T11:32:24;17.10;99.90
30206;DHT22;17010;51.306;3.150;2022-10-31T11:34:59;17.00;99.90
30206;DHT22;17010;51.306;3.150;2022-10-31T11:37:27;17.00;99.90
30206;DHT22;17010;51.306;3.150;2022-10-31T11:42:27;17.00;99.90
30206;DHT22;17010;51.306;3.150;2022-10-31T11:47:30;17.10;99.90
30206;DHT22;17010;51.306;3.150;2022-10-31T11:50:01;17.10;99.90
30206;DHT22;17010;51.306;3.150;2022-10-31T11:55:15;17.10;99.90
30206;DHT22;17010;51.306;3.150;2022-10-31T12:00:24;17.20;99.90
30206;DHT22;17010;51.306;3.150;2022-10-31T12:02:51;17.30;99.90
30206;DHT22;17010;51.306;3.150;2022-10-31T12:05:29;17.40;99.90
30206;DHT22;17010;51.306;3.150;2022-10-31T12:07:58;17.50;99.90
30206;DHT22;17010;51.306;3.150;2022-10-31T12:10:27;17.40;99.90
30206;DHT22;17010;51.306;3.150;2022-10-31T12:13:02;17.40;99.90
30206;DHT22;17010;51.306;3.150;2022-10-31T12:15:32;17.50;99.90
30206;DHT22;17010;51.306;3.150;2022-10-31T12:26:19;17.30;99.90
30206;DHT22;17010;51.306;3.150;2022-10-31T12:34:18;17.80;99.90
30206;DHT22;17010;51.306;3.150;2022-10-31T12:42:13;18.10;99.90
30206;DHT22;17010;51.306;3.150;2022-10-31T12:44:55;18.10;99.90
30206;DHT22;17010;51.306;3.150;2022-10-31T12:50:02;18.00;99.90
30206;DHT22;17010;51.306;3.150;2022-10-31T12:57:52;18.10;99.90
30206;DHT22;17010;51.306;3.150;2022-10-31T13:00:20;18.10;99.90
30206;DHT22;17010;51.306;3.150;2022-10-31T13:05:29;18.20;99.90
30206;DHT22;17010;51.306;3.150;2022-10-31T13:10:26;18.20;99.90
30206;DHT22;17010;51.306;3.150;2022-10-31T13:12:55;18.10;99.90
30206;DHT22;17010;51.306;3.150;2022-10-31T13:15:27;18.10;99.90
30206;DHT22;17010;51.306;3.150;2022-10-31T13:17:55;18.00;99.90
30206;DHT22;17010;51.306;3.150;2022-10-31T13:20:30;18.00;99.90
30206;DHT22;17010;51.306;3.150;2022-10-31T13:23:08;18.00;99.90
30206;DHT22;17010;51.306;3.150;2022-10-31T13:25:38;17.90;99.90
30206;DHT22;17010;51.306;3.150;2022-10-31T13:28:23;17.80;99.90
30206;DHT22;17010;51.306;3.150;2022-10-31T13:30:49;17.70;99.90
30206;DHT22;17010;51.306;3.150;2022-10-31T13:33:18;17.70;99.90
30206;DHT22;17010;51.306;3.150;2022-10-31T13:38:20;17.70;99.90
30206;DHT22;17010;51.306;3.150;2022-10-31T13:45:50;17.60;99.90
30206;DHT22;17010;51.306;3.150;2022-10-31T13:50:43;17.60;99.90
30206;DHT22;17010;51.306;3.150;2022-10-31T13:53:20;17.50;99.90
30206;DHT22;17010;51.306;3.150;2022-10-31T13:55:48;17.50;99.90
30206;DHT22;17010;51.306;3.150;2022-10-31T13:58:21;17.60;99.90
30206;DHT22;17010;51.306;3.150;2022-10-31T14:00:57;17.60;99.90
30206;DHT22;17010;51.306;3.150;2022-10-31T14:03:24;17.60;99.90
30206;DHT22;17010;51.306;3.150;2022-10-31T14:05:54;17.60;99.90
30206;DHT22;17010;51.306;3.150;2022-10-31T14:08:21;17.50;99.90
30206;DHT22;17010;51.306;3.150;2022-10-31T14:10:52;17.50;99.90
30206;DHT22;17010;51.306;3.150;2022-10-31T14:15:58;17.50;99.90
30206;DHT22;17010;51.306;3.150;2022-10-31T14:18:35;17.40;99.90
30206;DHT22;17010;51.306;3.150;2022-10-31T14:23:47;17.30;99.90
30206;DHT22;17010;51.306;3.150;2022-10-31T14:28:46;17.10;99.90
30206;DHT22;17010;51.306;3.150;2022-10-31T14:33:54;17.10;99.90
30206;DHT22;17010;51.306;3.150;2022-10-31T14:36:26;17.10;99.90
30206;DHT22;17010;51.306;3.150;2022-10-31T14:41:47;17.00;99.90
30206;DHT22;17010;51.306;3.150;2022-10-31T14:51:42;17.10;99.90
30206;DHT22;17010;51.306;3.150;2022-10-31T14:54:14;17.10;99.90
30206;DHT22;17010;51.306;3.150;2022-10-31T14:56:47;17.00;99.90
30206;DHT22;17010;51.306;3.150;2022-10-31T14:59:15;16.90;99.90
30206;DHT22;17010;51.306;3.150;2022-10-31T15:01:48;16.90;99.90
30206;DHT22;17010;51.306;3.150;2022-10-31T15:04:19;17.00;99.90
30206;DHT22;17010;51.306;3.150;2022-10-31T15:06:48;16.90;99.90
30206;DHT22;17010;51.306;3.150;2022-10-31T15:09:25;16.90;99.90
30206;DHT22;17010;51.306;3.150;2022-10-31T15:11:51;16.80;99.90
30206;DHT22;17010;51.306;3.150;2022-10-31T15:14:25;16.80;99.90
30206;DHT22;17010;51.306;3.150;2022-10-31T15:16:52;16.70;99.90
30206;DHT22;17010;51.306;3.150;2022-10-31T15:19:24;16.70;99.90
30206;DHT22;17010;51.306;3.150;2022-10-31T15:21:53;16.70;99.90
30206;DHT22;17010;51.306;3.150;2022-10-31T15:24:20;16.80;99.90
30206;DHT22;17010;51.306;3.150;2022-10-31T15:26:49;16.80;99.90
30206;DHT22;17010;51.306;3.150;2022-10-31T15:29:17;16.80;99.90
30206;DHT22;17010;51.306;3.150;2022-10-31T15:36:55;16.70;99.90
30206;DHT22;17010;51.306;3.150;2022-10-31T15:39:21;16.80;99.90
30206;DHT22;17010;51.306;3.150;2022-10-31T15:41:54;16.80;99.90
30206;DHT22;17010;51.306;3.150;2022-10-31T15:46:54;16.70;99.90
30206;DHT22;17010;51.306;3.150;2022-10-31T15:50:03;16.70;99.90
30206;DHT22;17010;51.306;3.150;2022-10-31T15:52:21;16.70;99.90
30206;DHT22;17010;51.306;3.150;2022-10-31T15:54:55;16.60;99.90
30206;DHT22;17010;51.306;3.150;2022-10-31T15:57:23;16.60;99.90
30206;DHT22;17010;51.306;3.150;2022-10-31T15:59:49;16.50;99.90
30206;DHT22;17010;51.306;3.150;2022-10-31T16:02:22;16.40;99.90
30206;DHT22;17010;51.306;3.150;2022-10-31T16:04:56;16.30;99.90
30206;DHT22;17010;51.306;3.150;2022-10-31T16:07:23;16.10;99.90
30206;DHT22;17010;51.306;3.150;2022-10-31T16:12:15;16.10;99.90
30206;DHT22;17010;51.306;3.150;2022-10-31T16:14:42;16.10;99.90
30206;DHT22;17010;51.306;3.150;2022-10-31T16:17:11;16.00;99.90
30206;DHT22;17010;51.306;3.150;2022-10-31T16:22:20;16.00;99.90
30206;DHT22;17010;51.306;3.150;2022-10-31T16:27:32;15.90;99.90
30206;DHT22;17010;51.306;3.150;2022-10-31T16:30:00;15.90;99.90
30206;DHT22;17010;51.306;3.150;2022-10-31T16:37:41;15.90;99.90
30206;DHT22;17010;51.306;3.150;2022-10-31T16:40:09;15.80;99.90
30206;DHT22;17010;51.306;3.150;2022-10-31T16:42:35;15.90;99.90
30206;DHT22;17010;51.306;3.150;2022-10-31T16:47:37;15.90;99.90
30206;DHT22;17010;51.306;3.150;2022-10-31T16:50:04;15.90;99.90
30206;DHT22;17010;51.306;3.150;2022-10-31T16:52:31;15.80;99.90
30206;DHT22;17010;51.306;3.150;2022-10-31T16:54:57;15.70;99.90
30206;DHT22;17010;51.306;3.150;2022-10-31T16:57:25;15.70;99.90
30206;DHT22;17010;51.306;3.150;2022-10-31T16:59:52;15.70;99.90
30206;DHT22;17010;51.306;3.150;2022-10-31T17:04:55;15.60;99.90
30206;DHT22;17010;51.306;3.150;2022-10-31T17:15:18;15.50;99.90
30206;DHT22;17010;51.306;3.150;2022-10-31T17:22:56;15.60;99.90
30206;DHT22;17010;51.306;3.150;2022-10-31T17:25:24;15.50;99.90
30206;DHT22;17010;51.306;3.150;2022-10-31T17:33:02;15.30;99.90
30206;DHT22;17010;51.306;3.150;2022-10-31T17:35:28;15.30;99.90
30206;DHT22;17010;51.306;3.150;2022-10-31T17:37:55;15.30;99.90
30206;DHT22;17010;51.306;3.150;2022-10-31T17:45:32;15.20;99.90
30206;DHT22;17010;51.306;3.150;2022-10-31T17:58:22;15.30;99.90
30206;DHT22;17010;51.306;3.150;2022-10-31T18:00:48;15.40;99.90
30206;DHT22;17010;51.306;3.150;2022-10-31T18:03:14;15.40;99.90
30206;DHT22;17010;51.306;3.150;2022-10-31T18:05:49;15.40;99.90
30206;DHT22;17010;51.306;3.150;2022-10-31T18:10:51;15.40;99.90
30206;DHT22;17010;51.306;3.150;2022-10-31T18:18:29;15.30;99.90
30206;DHT22;17010;51.306;3.150;2022-10-31T18:20:56;15.30;99.90
30206;DHT22;17010;51.306;3.150;2022-10-31T18:23:22;15.40;99.90
30206;DHT22;17010;51.306;3.150;2022-10-31T18:28:24;15.40;99.90
30206;DHT22;17010;51.306;3.150;2022-10-31T18:30:50;15.40;99.90
30206;DHT22;17010;51.306;3.150;2022-10-31T18:35:52;15.60;99.90
30206;DHT22;17010;51.306;3.150;2022-10-31T18:38:18;15.60;99.90
30206;DHT22;17010;51.306;3.150;2022-10-31T18:43:20;15.70;99.90
30206;DHT22;17010;51.306;3.150;2022-10-31T18:45:46;15.80;99.90
30206;DHT22;17010;51.306;3.150;2022-10-31T18:50:48;16.00;99.90
30206;DHT22;17010;51.306;3.150;2022-10-31T18:53:14;16.00;99.90
30206;DHT22;17010;51.306;3.150;2022-10-31T18:55:41;16.00;99.90
30206;DHT22;17010;51.306;3.150;2022-10-31T18:58:07;16.10;99.90
30206;DHT22;17010;51.306;3.150;2022-10-31T19:00:33;16.10;99.90
30206;DHT22;17010;51.306;3.150;2022-10-31T19:05:35;16.10;99.90
30206;DHT22;17010;51.306;3.150;2022-10-31T19:08:02;16.20;99.90
30206;DHT22;17010;51.306;3.150;2022-10-31T19:13:00;16.20;99.90
30206;DHT22;17010;51.306;3.150;2022-10-31T19:15:26;16.10;99.90
30206;DHT22;17010;51.306;3.150;2022-10-31T19:17:53;16.20;99.90
30206;DHT22;17010;51.306;3.150;2022-10-31T19:20:22;16.10;99.90
30206;DHT22;17010;51.306;3.150;2022-10-31T19:22:48;16.20;99.90
30206;DHT22;17010;51.306;3.150;2022-10-31T19:25:14;16.20;99.90
30206;DHT22;17010;51.306;3.150;2022-10-31T19:27:40;16.20;99.90
30206;DHT22;17010;51.306;3.150;2022-10-31T19:30:07;16.20;99.90
30206;DHT22;17010;51.306;3.150;2022-10-31T19:35:09;16.30;99.90
30206;DHT22;17010;51.306;3.150;2022-10-31T19:37:36;16.30;99.90
30206;DHT22;17010;51.306;3.150;2022-10-31T19:40:03;16.30;99.90
30206;DHT22;17010;51.306;3.150;2022-10-31T19:42:30;16.30;99.90
30206;DHT22;17010;51.306;3.150;2022-10-31T19:44:58;16.20;99.90
30206;DHT22;17010;51.306;3.150;2022-10-31T19:47:24;16.20;99.90
30206;DHT22;17010;51.306;3.150;2022-10-31T19:49:50;16.30;99.90
30206;DHT22;17010;51.306;3.150;2022-10-31T19:52:16;16.30;99.90
30206;DHT22;17010;51.306;3.150;2022-10-31T19:54:42;16.30;99.90
30206;DHT22;17010;51.306;3.150;2022-10-31T19:57:09;16.40;99.90
30206;DHT22;17010;51.306;3.150;2022-10-31T19:59:35;16.50;99.90
30206;DHT22;17010;51.306;3.150;2022-10-31T20:02:01;16.60;99.90
30206;DHT22;17010;51.306;3.150;2022-10-31T20:04:27;16.60;99.90
30206;DHT22;17010;51.306;3.150;2022-10-31T20:06:53;16.60;99.90
30206;DHT22;17010;51.306;3.150;2022-10-31T20:09:19;16.60;99.90
30206;DHT22;17010;51.306;3.150;2022-10-31T20:11:45;16.60;99.90
30206;DHT22;17010;51.306;3.150;2022-10-31T20:14:12;16.70;99.90
30206;DHT22;17010;51.306;3.150;2022-10-31T20:16:42;16.70;99.90
30206;DHT22;17010;51.306;3.150;2022-10-31T20:19:09;16.80;99.90
30206;DHT22;17010;51.306;3.150;2022-10-31T20:21:36;16.80;99.90
30206;DHT22;17010;51.306;3.150;2022-10-31T20:31:50;16.40;99.90
30206;DHT22;17010;51.306;3.150;2022-10-31T20:34:16;16.30;99.90
30206;DHT22;17010;51.306;3.150;2022-10-31T20:39:19;16.30;99.90
30206;DHT22;17010;51.306;3.150;2022-10-31T20:41:45;16.20;99.90
30206;DHT22;17010;51.306;3.150;2022-10-31T20:44:13;16.20;99.90
30206;DHT22;17010;51.306;3.150;2022-10-31T20:46:39;16.20;99.90
30206;DHT22;17010;51.306;3.150;2022-10-31T20:49:05;16.20;99.90
30206;DHT22;17010;51.306;3.150;2022-10-31T20:51:32;16.20;99.90
30206;DHT22;17010;51.306;3.150;2022-10-31T20:53:58;16.30;99.90
30206;DHT22;17010;51.306;3.150;2022-10-31T20:56:25;16.20;99.90
30206;DHT22;17010;51.306;3.150;2022-10-31T20:58:52;16.10;99.90
30206;DHT22;17010;51.306;3.150;2022-10-31T21:01:20;16.10;99.90
30206;DHT22;17010;51.306;3.150;2022-10-31T21:06:22;16.30;99.90
30206;DHT22;17010;51.306;3.150;2022-10-31T21:08:49;16.30;99.90
30206;DHT22;17010;51.306;3.150;2022-10-31T21:11:16;16.40;99.90
30206;DHT22;17010;51.306;3.150;2022-10-31T21:13:43;16.40;99.90
30206;DHT22;17010;51.306;3.150;2022-10-31T21:16:10;16.40;99.90
30206;DHT22;17010;51.306;3.150;2022-10-31T21:18:37;16.30;99.90
30206;DHT22;17010;51.306;3.150;2022-10-31T21:21:10;16.30;99.90
30206;DHT22;17010;51.306;3.150;2022-10-31T21:23:36;16.40;99.90
30206;DHT22;17010;51.306;3.150;2022-10-31T21:26:06;16.30;99.90
30206;DHT22;17010;51.306;3.150;2022-10-31T21:31:10;16.30;99.90
30206;DHT22;17010;51.306;3.150;2022-10-31T21:33:36;16.30;99.90
30206;DHT22;17010;51.306;3.150;2022-10-31T21:36:03;16.30;99.90
30206;DHT22;17010;51.306;3.150;2022-10-31T21:38:30;16.40;99.90
30206;DHT22;17010;51.306;3.150;2022-10-31T21:41:06;16.40;99.90
30206;DHT22;17010;51.306;3.150;2022-10-31T21:46:13;16.30;99.90
30206;DHT22;17010;51.306;3.150;2022-10-31T21:56:23;16.40;99.90
30206;DHT22;17010;51.306;3.150;2022-10-31T21:58:49;16.40;99.90
30206;DHT22;17010;51.306;3.150;2022-10-31T22:01:15;16.30;99.90
30206;DHT22;17010;51.306;3.150;2022-10-31T22:03:42;16.30;99.90
30206;DHT22;17010;51.306;3.150;2022-10-31T22:06:09;16.30;99.90
30206;DHT22;17010;51.306;3.150;2022-10-31T22:08:35;16.30;99.90
30206;DHT22;17010;51.306;3.150;2022-10-31T22:11:02;16.30;99.90
30206;DHT22;17010;51.306;3.150;2022-10-31T22:13:32;16.40;99.90
30206;DHT22;17010;51.306;3.150;2022-10-31T22:16:01;16.50;99.90
30206;DHT22;17010;51.306;3.150;2022-10-31T22:21:10;16.60;99.90
30206;DHT22;17010;51.306;3.150;2022-10-31T22:23:36;16.50;99.90
30206;DHT22;17010;51.306;3.150;2022-10-31T22:26:03;16.50;99.90
30206;DHT22;17010;51.306;3.150;2022-10-31T22:28:30;16.60;99.90
30206;DHT22;17010;51.306;3.150;2022-10-31T22:30:56;16.50;99.90
30206;DHT22;17010;51.306;3.150;2022-10-31T22:33:22;16.50;99.90
30206;DHT22;17010;51.306;3.150;2022-10-31T22:35:48;16.50;99.90
30206;DHT22;17010;51.306;3.150;2022-10-31T22:38:15;16.50;99.90
30206;DHT22;17010;51.306;3.150;2022-10-31T22:40:41;16.60;99.90
30206;DHT22;17010;51.306;3.150;2022-10-31T22:43:07;16.70;99.90
30206;DHT22;17010;51.306;3.150;2022-10-31T22:45:33;16.70;99.90
30206;DHT22;17010;51.306;3.150;2022-10-31T22:47:59;16.70;99.90
30206;DHT22;17010;51.306;3.150;2022-10-31T22:50:25;16.70;99.90
30206;DHT22;17010;51.306;3.150;2022-10-31T22:52:51;16.70;99.90
30206;DHT22;17010;51.306;3.150;2022-10-31T22:55:17;16.70;99.90
30206;DHT22;17010;51.306;3.150;2022-10-31T22:57:43;16.60;99.90
30206;DHT22;17010;51.306;3.150;2022-10-31T23:00:09;16.60;99.90
30206;DHT22;17010;51.306;3.150;2022-10-31T23:02:35;16.60;99.90
30206;DHT22;17010;51.306;3.150;2022-10-31T23:05:02;16.60;99.90
30206;DHT22;17010;51.306;3.150;2022-10-31T23:07:28;16.50;99.90
30206;DHT22;17010;51.306;3.150;2022-10-31T23:09:54;16.50;99.90
30206;DHT22;17010;51.306;3.150;2022-10-31T23:12:20;16.50;99.90
30206;DHT22;17010;51.306;3.150;2022-10-31T23:15:07;16.50;99.90
30206;DHT22;17010;51.306;3.150;2022-10-31T23:17:34;16.50;99.90
30206;DHT22;17010;51.306;3.150;2022-10-31T23:20:00;16.50;99.90
30206;DHT22;17010;51.306;3.150;2022-10-31T23:22:26;16.50;99.90
30206;DHT22;17010;51.306;3.150;2022-10-31T23:24:52;16.50;99.90
30206;DHT22;17010;51.306;3.150;2022-10-31T23:27:22;16.60;99.90
30206;DHT22;17010;51.306;3.150;2022-10-31T23:29:49;16.60;99.90
30206;DHT22;17010;51.306;3.150;2022-10-31T23:32:17;16.60;99.90
30206;DHT22;17010;51.306;3.150;2022-10-31T23:34:43;16.60;99.90
30206;DHT22;17010;51.306;3.150;2022-10-31T23:37:09;16.50;99.90
30206;DHT22;17010;51.306;3.150;2022-10-31T23:39:36;16.50;99.90
30206;DHT22;17010;51.306;3.150;2022-10-31T23:42:02;16.50;99.90
30206;DHT22;17010;51.306;3.150;2022-10-31T23:44:28;16.50;99.90
30206;DHT22;17010;51.306;3.150;2022-10-31T23:46:54;16.40;99.90
30206;DHT22;17010;51.306;3.150;2022-10-31T23:49:20;16.40;99.90
30206;DHT22;17010;51.306;3.150;2022-10-31T23:51:46;16.50;99.90
30206;DHT22;17010;51.306;3.150;2022-10-31T23:54:12;16.50;99.90
30206;DHT22;17010;51.306;3.150;2022-10-31T23:56:39;16.50;99.90
30206;DHT22;17010;51.306;3.150;2022-10-31T23:59:05;16.60;99.90
